Time;durP1;ratioP1;P1;durP2;ratioP2;P2;SDS_P1;SDS_P2;PMS_P1;PMS_P2;Temp;Humidity;BMP_temperature;BMP_pressure;BME280_temperature;BME280_humidity;BME280_pressure;Samples;Min_cycle;Max_cycle;Signal;HPM_P1;HPM_P2
2024/01/20 00:00:19;;;;;;;;;;;16.60;41.30;;;;;;1564818;74;1926;-74
2024/01/20 00:02:21;;;;;;;;;;;16.60;41.30;;;;;;1570076;74;716;-74
2024/01/20 00:04:23;;;;;;;;;;;16.60;41.30;;;;;;1573076;74;701;-71
2024/01/20 00:06:25;;;;;;;;;;;16.70;41.50;;;;;;1575860;74;686;-73
2024/01/20 00:08:26;;;;;;;;;;;16.60;41.40;;;;;;1569651;74;1269;-73
2024/01/20 00:10:28;;;;;;;;;;;16.60;41.40;;;;;;1570679;74;719;-73
2024/01/20 00:12:33;;;;;;;;;;;16.70;41.50;;;;;;1568064;74;678;-73
2024/01/20 00:14:34;;;;;;;;;;;16.70;41.50;;;;;;1571992;74;1564;-71
2024/01/20 00:16:36;;;;;;;;;;;16.70;41.50;;;;;;1573233;74;658;-73
2024/01/20 00:18:38;;;;;;;;;;;16.60;41.30;;;;;;1569264;74;1142;-69
2024/01/20 00:20:39;;;;;;;;;;;16.60;41.40;;;;;;1570400;74;1941;-73
2024/01/20 00:22:41;;;;;;;;;;;16.60;41.30;;;;;;1564749;74;763;-71
2024/01/20 00:24:44;;;;;;;;;;;16.60;41.40;;;;;;1564390;74;666;-73
2024/01/20 00:26:46;;;;;;;;;;;16.70;41.50;;;;;;1575961;75;673;-68
2024/01/20 00:28:47;;;;;;;;;;;16.70;41.50;;;;;;1570931;74;1138;-71
2024/01/20 00:30:49;;;;;;;;;;;16.70;41.50;;;;;;1569906;74;772;-72
2024/01/20 00:32:51;;;;;;;;;;;16.70;41.50;;;;;;1569384;74;746;-73
2024/01/20 00:34:53;;;;;;;;;;;16.70;41.50;;;;;;1566500;74;766;-68
2024/01/20 00:36:55;;;;;;;;;;;16.60;41.30;;;;;;1570715;74;657;-74
2024/01/20 00:38:57;;;;;;;;;;;16.60;41.30;;;;;;1568632;74;1118;-73
2024/01/20 00:40:59;;;;;;;;;;;16.70;41.50;;;;;;1563906;74;1939;-74
2024/01/20 00:43:00;;;;;;;;;;;16.70;41.50;;;;;;1569486;74;750;-72
2024/01/20 00:45:03;;;;;;;;;;;16.70;41.50;;;;;;1560541;74;813;-73
2024/01/20 00:47:05;;;;;;;;;;;16.60;41.30;;;;;;1563252;74;770;-73
2024/01/20 00:49:07;;;;;;;;;;;16.60;41.40;;;;;;1561499;74;1067;-73
2024/01/20 00:51:08;;;;;;;;;;;16.60;41.30;;;;;;1568725;74;932;-73
2024/01/20 00:53:10;;;;;;;;;;;16.60;41.40;;;;;;1572923;74;703;-72
2024/01/20 00:55:12;;;;;;;;;;;16.60;41.40;;;;;;1575627;74;672;-71
2024/01/20 00:57:14;;;;;;;;;;;16.60;41.40;;;;;;1575885;74;1087;-73
2024/01/20 00:59:16;;;;;;;;;;;16.60;41.40;;;;;;1553398;74;596;-71
2024/01/20 01:01:18;;;;;;;;;;;16.60;41.30;;;;;;1569836;74;1942;-73
2024/01/20 01:03:20;;;;;;;;;;;16.70;41.50;;;;;;1567041;75;747;-74
2024/01/20 01:05:21;;;;;;;;;;;16.60;41.40;;;;;;1571793;74;671;-73
2024/01/20 01:07:23;;;;;;;;;;;16.60;41.40;;;;;;1570688;74;1158;-73
2024/01/20 01:09:25;;;;;;;;;;;16.60;41.30;;;;;;1567622;74;829;-71
2024/01/20 01:11:28;;;;;;;;;;;16.60;41.40;;;;;;1568084;74;717;-74
2024/01/20 01:13:30;;;;;;;;;;;16.60;41.30;;;;;;1569243;74;731;-72
2024/01/20 01:15:32;;;;;;;;;;;16.60;41.40;;;;;;1562781;74;755;-71
2024/01/20 01:17:34;;;;;;;;;;;16.70;41.50;;;;;;1570160;74;1160;-74
2024/01/20 01:19:36;;;;;;;;;;;16.60;41.40;;;;;;1577062;74;689;-72
2024/01/20 01:21:37;;;;;;;;;;;16.60;41.30;;;;;;1571745;74;1915;-68
2024/01/20 01:23:39;;;;;;;;;;;16.60;41.40;;;;;;1572826;74;732;-70
2024/01/20 01:25:41;;;;;;;;;;;16.60;41.30;;;;;;1569546;74;725;-71
2024/01/20 01:27:43;;;;;;;;;;;16.60;41.40;;;;;;1567705;74;1105;-73
2024/01/20 01:29:45;;;;;;;;;;;16.70;41.50;;;;;;1566724;74;596;-74
2024/01/20 01:31:47;;;;;;;;;;;16.60;41.40;;;;;;1563519;74;665;-73
2024/01/20 01:33:49;;;;;;;;;;;16.60;41.40;;;;;;1570420;74;683;-72
2024/01/20 01:35:50;;;;;;;;;;;16.60;41.40;;;;;;1570328;74;727;-71
2024/01/20 01:37:52;;;;;;;;;;;16.60;41.40;;;;;;1572162;74;1362;-71
2024/01/20 01:39:54;;;;;;;;;;;16.60;41.40;;;;;;1563626;74;665;-74
2024/01/20 01:41:56;;;;;;;;;;;16.60;41.30;;;;;;1566033;74;1939;-71
2024/01/20 01:43:58;;;;;;;;;;;16.60;41.30;;;;;;1572355;74;670;-71
2024/01/20 01:46:00;;;;;;;;;;;16.60;41.40;;;;;;1570251;75;740;-70
2024/01/20 01:48:02;;;;;;;;;;;16.60;41.40;;;;;;1561705;74;1131;-69
2024/01/20 01:50:04;;;;;;;;;;;16.60;41.30;;;;;;1566702;74;672;-72
2024/01/20 01:52:06;;;;;;;;;;;16.60;41.30;;;;;;1570608;74;679;-73
2024/01/20 01:54:08;;;;;;;;;;;16.60;41.40;;;;;;1567624;74;524;-73
2024/01/20 01:56:10;;;;;;;;;;;16.60;41.40;;;;;;1571515;75;657;-73
2024/01/20 01:58:12;;;;;;;;;;;16.60;41.30;;;;;;1564207;74;1180;-73
2024/01/20 02:00:14;;;;;;;;;;;16.50;41.40;;;;;;1565947;74;685;-73
2024/01/20 02:02:16;;;;;;;;;;;16.60;41.40;;;;;;1567971;74;1932;-71
2024/01/20 02:04:18;;;;;;;;;;;16.60;41.30;;;;;;1569438;75;662;-73
2024/01/20 02:06:19;;;;;;;;;;;16.60;41.30;;;;;;1561141;74;751;-73
2024/01/20 02:08:23;;;;;;;;;;;16.50;41.40;;;;;;1563815;74;1125;-73
2024/01/20 02:10:25;;;;;;;;;;;16.60;41.40;;;;;;1574117;74;671;-72
2024/01/20 02:12:27;;;;;;;;;;;16.60;41.40;;;;;;1559453;74;758;-72
2024/01/20 02:14:29;;;;;;;;;;;16.60;41.50;;;;;;1557323;74;663;-71
2024/01/20 02:16:30;;;;;;;;;;;16.60;41.40;;;;;;1573845;74;651;-73
2024/01/20 02:18:33;;;;;;;;;;;16.60;41.50;;;;;;1568764;74;1146;-72
2024/01/20 02:20:35;;;;;;;;;;;16.50;41.40;;;;;;1568472;74;1936;-72
2024/01/20 02:22:37;;;;;;;;;;;16.60;41.40;;;;;;1569333;74;717;-73
2024/01/20 02:24:39;;;;;;;;;;;16.60;41.40;;;;;;1573510;74;667;-73
2024/01/20 02:26:40;;;;;;;;;;;16.60;41.40;;;;;;1562957;75;895;-71
2024/01/20 02:28:42;;;;;;;;;;;16.60;41.50;;;;;;1565027;74;1118;-71
2024/01/20 02:30:46;;;;;;;;;;;16.50;41.40;;;;;;1569114;74;778;-72
2024/01/20 02:32:48;;;;;;;;;;;16.60;41.40;;;;;;1568656;74;745;-71
2024/01/20 02:34:50;;;;;;;;;;;16.50;41.40;;;;;;1558881;74;1516;-74
2024/01/20 02:36:52;;;;;;;;;;;16.60;41.40;;;;;;1563220;74;665;-70
2024/01/20 02:38:54;;;;;;;;;;;16.50;41.40;;;;;;1563926;74;1139;-70
2024/01/20 02:40:56;;;;;;;;;;;16.60;41.40;;;;;;1569755;74;1941;-71
2024/01/20 02:42:58;;;;;;;;;;;16.60;41.50;;;;;;1568566;75;732;-68
2024/01/20 02:44:59;;;;;;;;;;;16.60;41.50;;;;;;1568924;75;771;-74
2024/01/20 02:47:02;;;;;;;;;;;16.60;41.40;;;;;;1570908;74;615;-73
2024/01/20 02:49:04;;;;;;;;;;;16.50;41.40;;;;;;1570438;74;1106;-67
2024/01/20 02:51:05;;;;;;;;;;;16.40;41.40;;;;;;1568970;74;647;-71
2024/01/20 02:53:07;;;;;;;;;;;16.50;41.50;;;;;;1577797;74;723;-73
2024/01/20 02:55:09;;;;;;;;;;;16.60;41.40;;;;;;1563497;74;591;-71
2024/01/20 02:57:11;;;;;;;;;;;16.60;41.50;;;;;;1567570;74;727;-72
2024/01/20 02:59:13;;;;;;;;;;;16.60;41.40;;;;;;1568684;74;1193;-73
2024/01/20 03:01:15;;;;;;;;;;;16.60;41.40;;;;;;1569072;74;1927;-73
2024/01/20 03:03:17;;;;;;;;;;;16.60;41.40;;;;;;1566817;74;594;-74
2024/01/20 03:05:19;;;;;;;;;;;16.60;41.40;;;;;;1560764;74;688;-73
2024/01/20 03:07:20;;;;;;;;;;;16.60;41.40;;;;;;1567460;74;1088;-72
2024/01/20 03:09:22;;;;;;;;;;;16.50;41.50;;;;;;1565245;74;783;-72
2024/01/20 03:11:24;;;;;;;;;;;16.50;41.40;;;;;;1569055;74;698;-70
2024/01/20 03:13:26;;;;;;;;;;;16.60;41.50;;;;;;1569853;74;706;-73
2024/01/20 03:15:28;;;;;;;;;;;16.50;41.50;;;;;;1570566;74;916;-74
2024/01/20 03:17:30;;;;;;;;;;;16.50;41.50;;;;;;1576326;74;1208;-73
2024/01/20 03:19:32;;;;;;;;;;;16.60;41.50;;;;;;1567859;74;686;-74
2024/01/20 03:21:36;;;;;;;;;;;16.50;41.50;;;;;;1572523;75;1950;-73
2024/01/20 03:23:38;;;;;;;;;;;16.60;41.40;;;;;;1572048;75;712;-73
2024/01/20 03:25:40;;;;;;;;;;;16.50;41.40;;;;;;1570978;74;624;-74
2024/01/20 03:27:42;;;;;;;;;;;16.60;41.40;;;;;;1568676;74;1181;-71
2024/01/20 03:29:44;;;;;;;;;;;16.50;41.40;;;;;;1579427;74;1475;-71
2024/01/20 03:31:46;;;;;;;;;;;16.50;41.30;;;;;;1567783;74;729;-73
2024/01/20 03:33:47;;;;;;;;;;;16.60;41.30;;;;;;1570826;74;670;-67
2024/01/20 03:35:49;;;;;;;;;;;16.50;41.30;;;;;;1561277;74;661;-73
2024/01/20 03:37:51;;;;;;;;;;;16.60;41.30;;;;;;1565590;74;1117;-73
2024/01/20 03:39:53;;;;;;;;;;;16.50;41.30;;;;;;1562727;74;819;-72
2024/01/20 03:41:55;;;;;;;;;;;16.50;41.30;;;;;;1564550;74;1926;-73
2024/01/20 03:43:57;;;;;;;;;;;16.60;41.30;;;;;;1571175;74;690;-72
2024/01/20 03:45:59;;;;;;;;;;;16.50;41.30;;;;;;1570160;75;578;-73
2024/01/20 03:48:01;;;;;;;;;;;16.50;41.30;;;;;;1567767;74;1216;-71
2024/01/20 03:50:09;;;;;;;;;;;16.60;41.30;;;;;;1564640;74;745;-73
2024/01/20 03:52:06;;;;;;;;;;;16.60;41.30;;;;;;1568146;74;1457;-70
2024/01/20 03:54:08;;;;;;;;;;;16.60;41.30;;;;;;1575136;74;576;-72
2024/01/20 03:56:10;;;;;;;;;;;16.50;41.30;;;;;;1569342;74;552;-73
2024/01/20 03:58:12;;;;;;;;;;;16.70;41.40;;;;;;1563279;74;1146;-73
2024/01/20 04:00:14;;;;;;;;;;;16.60;41.30;;;;;;1574225;74;820;-74
2024/01/20 04:02:16;;;;;;;;;;;16.50;41.30;;;;;;1573080;74;1950;-71
2024/01/20 04:04:18;;;;;;;;;;;16.60;41.20;;;;;;1572064;74;639;-73
2024/01/20 04:06:20;;;;;;;;;;;16.60;41.20;;;;;;1570627;74;638;-72
2024/01/20 04:08:22;;;;;;;;;;;16.60;41.20;;;;;;1572655;74;1107;-74
2024/01/20 04:10:24;;;;;;;;;;;16.60;41.20;;;;;;1570166;74;784;-72
2024/01/20 04:12:26;;;;;;;;;;;16.60;41.20;;;;;;1572957;74;670;-72
2024/01/20 04:14:27;;;;;;;;;;;16.60;41.20;;;;;;1564848;74;588;-67
2024/01/20 04:16:30;;;;;;;;;;;16.60;41.10;;;;;;1557374;75;740;-72
2024/01/20 04:18:31;;;;;;;;;;;16.60;41.10;;;;;;1571303;74;1144;-73
2024/01/20 04:20:33;;;;;;;;;;;16.60;41.10;;;;;;1571731;74;771;-73
2024/01/20 04:22:35;;;;;;;;;;;16.60;41.10;;;;;;1568150;74;1938;-71
2024/01/20 04:24:37;;;;;;;;;;;16.60;41.10;;;;;;1562656;74;691;-72
2024/01/20 04:26:39;;;;;;;;;;;16.60;41.10;;;;;;1569790;74;1426;-74
2024/01/20 04:28:41;;;;;;;;;;;16.60;41.20;;;;;;1566048;74;1143;-74
2024/01/20 04:30:43;;;;;;;;;;;16.50;41.10;;;;;;1573104;74;733;-71
2024/01/20 04:32:44;;;;;;;;;;;16.60;41.10;;;;;;1567876;74;906;-70
2024/01/20 04:34:46;;;;;;;;;;;16.60;41.10;;;;;;1563870;74;673;-72
2024/01/20 04:36:48;;;;;;;;;;;16.60;41.20;;;;;;1563858;74;654;-72
2024/01/20 04:38:50;;;;;;;;;;;16.60;41.10;;;;;;1564468;74;1115;-73
2024/01/20 04:40:53;;;;;;;;;;;16.60;41.10;;;;;;1557664;74;573;-70
2024/01/20 04:42:54;;;;;;;;;;;16.60;41.10;;;;;;1567192;74;1907;-71
2024/01/20 04:44:56;;;;;;;;;;;16.60;41.10;;;;;;1573074;74;641;-73
2024/01/20 04:46:58;;;;;;;;;;;16.60;41.10;;;;;;1562329;74;693;-74
2024/01/20 04:49:00;;;;;;;;;;;16.60;41.10;;;;;;1572656;74;1076;-73
2024/01/20 04:51:02;;;;;;;;;;;16.60;41.00;;;;;;1568055;74;766;-70
2024/01/20 04:53:04;;;;;;;;;;;16.60;41.10;;;;;;1575768;75;836;-71
2024/01/20 04:55:06;;;;;;;;;;;16.60;41.20;;;;;;1572268;74;854;-73
2024/01/20 04:57:08;;;;;;;;;;;16.60;41.00;;;;;;1564525;75;658;-66
2024/01/20 04:59:09;;;;;;;;;;;16.50;41.00;;;;;;1567740;74;1111;-73
2024/01/20 05:01:11;;;;;;;;;;;16.60;41.10;;;;;;1567075;74;1009;-73
2024/01/20 05:03:13;;;;;;;;;;;16.60;41.20;;;;;;1571788;74;1939;-73
2024/01/20 05:05:15;;;;;;;;;;;16.60;41.10;;;;;;1568410;74;752;-71
2024/01/20 05:07:18;;;;;;;;;;;16.60;41.20;;;;;;1568970;74;1156;-72
2024/01/20 05:09:20;;;;;;;;;;;16.60;41.20;;;;;;1564704;75;707;-72
2024/01/20 05:11:21;;;;;;;;;;;16.60;41.20;;;;;;1575468;74;763;-70
2024/01/20 05:13:23;;;;;;;;;;;16.60;41.20;;;;;;1568097;74;689;-73
2024/01/20 05:15:25;;;;;;;;;;;16.50;41.20;;;;;;1563855;74;767;-73
2024/01/20 05:17:27;;;;;;;;;;;16.60;41.20;;;;;;1577943;74;1128;-72
2024/01/20 05:19:29;;;;;;;;;;;16.50;41.10;;;;;;1569889;74;602;-67
2024/01/20 05:21:31;;;;;;;;;;;16.60;41.20;;;;;;1571159;74;615;-67
2024/01/20 05:23:33;;;;;;;;;;;16.50;41.20;;;;;;1570044;74;1942;-67
2024/01/20 05:25:35;;;;;;;;;;;16.50;41.20;;;;;;1561566;74;599;-71
2024/01/20 05:27:37;;;;;;;;;;;16.50;41.20;;;;;;1564877;74;1176;-74
2024/01/20 05:29:39;;;;;;;;;;;16.60;41.10;;;;;;1567137;74;684;-73
2024/01/20 05:31:41;;;;;;;;;;;16.60;41.30;;;;;;1562755;74;765;-74
2024/01/20 05:33:42;;;;;;;;;;;16.60;41.20;;;;;;1569859;74;763;-72
2024/01/20 05:35:44;;;;;;;;;;;16.50;41.20;;;;;;1575836;74;727;-73
2024/01/20 05:37:46;;;;;;;;;;;16.50;41.30;;;;;;1572511;74;1128;-73
2024/01/20 05:39:48;;;;;;;;;;;16.50;41.30;;;;;;1569310;74;852;-72
2024/01/20 05:41:50;;;;;;;;;;;16.60;41.30;;;;;;1570737;74;1932;-74
2024/01/20 05:43:52;;;;;;;;;;;16.60;41.30;;;;;;1565776;74;670;-70
2024/01/20 05:45:54;;;;;;;;;;;16.60;41.30;;;;;;1568425;74;684;-73
2024/01/20 05:47:56;;;;;;;;;;;16.60;41.30;;;;;;1574755;74;1133;-73
2024/01/20 05:49:57;;;;;;;;;;;16.60;41.30;;;;;;1572972;74;573;-70
2024/01/20 05:51:59;;;;;;;;;;;16.60;41.30;;;;;;1568416;74;722;-70
2024/01/20 05:54:01;;;;;;;;;;;16.60;41.30;;;;;;1571712;74;672;-72
2024/01/20 05:56:03;;;;;;;;;;;16.50;41.30;;;;;;1569479;75;723;-71
2024/01/20 05:58:05;;;;;;;;;;;16.50;41.30;;;;;;1563044;74;1194;-74
2024/01/20 06:00:09;;;;;;;;;;;16.50;41.30;;;;;;1564588;74;699;-73
2024/01/20 06:02:11;;;;;;;;;;;16.50;41.30;;;;;;1568512;74;1926;-73
2024/01/20 06:04:12;;;;;;;;;;;16.60;41.30;;;;;;1567346;74;686;-73
2024/01/20 06:06:14;;;;;;;;;;;16.50;41.30;;;;;;1572027;74;675;-73
2024/01/20 06:08:16;;;;;;;;;;;16.60;41.30;;;;;;1571103;74;1140;-71
2024/01/20 06:10:18;;;;;;;;;;;16.50;41.30;;;;;;1565941;74;693;-73
2024/01/20 06:12:20;;;;;;;;;;;16.60;41.30;;;;;;1573058;74;767;-73
2024/01/20 06:14:22;;;;;;;;;;;16.50;41.30;;;;;;1569311;74;687;-71
2024/01/20 06:16:24;;;;;;;;;;;16.60;41.30;;;;;;1571431;74;680;-73
2024/01/20 06:18:27;;;;;;;;;;;16.50;41.30;;;;;;1562899;74;1560;-70
2024/01/20 06:20:28;;;;;;;;;;;16.60;41.30;;;;;;1570452;74;850;-72
2024/01/20 06:22:30;;;;;;;;;;;16.60;41.40;;;;;;1571533;74;1920;-72
2024/01/20 06:24:32;;;;;;;;;;;16.50;41.30;;;;;;1569822;75;698;-73
2024/01/20 06:26:34;;;;;;;;;;;16.50;41.20;;;;;;1557991;74;611;-71
2024/01/20 06:28:36;;;;;;;;;;;16.50;41.30;;;;;;1567080;74;1187;-71
2024/01/20 06:30:38;;;;;;;;;;;16.50;41.30;;;;;;1569825;74;738;-73
2024/01/20 06:32:40;;;;;;;;;;;16.60;41.30;;;;;;1569680;74;745;-66
2024/01/20 06:34:42;;;;;;;;;;;16.50;41.30;;;;;;1567572;74;615;-70
2024/01/20 06:36:44;;;;;;;;;;;16.50;41.30;;;;;;1561227;74;678;-71
2024/01/20 06:38:46;;;;;;;;;;;16.60;41.30;;;;;;1561907;74;1118;-73
2024/01/20 06:40:48;;;;;;;;;;;16.60;41.30;;;;;;1568426;74;720;-73
2024/01/20 06:42:50;;;;;;;;;;;16.50;41.30;;;;;;1557084;74;1951;-73
2024/01/20 06:44:52;;;;;;;;;;;16.50;41.30;;;;;;1571754;74;683;-72
2024/01/20 06:46:53;;;;;;;;;;;16.50;41.30;;;;;;1567439;74;720;-68
2024/01/20 06:48:55;;;;;;;;;;;16.60;41.30;;;;;;1561925;74;1144;-73
2024/01/20 06:50:59;;;;;;;;;;;16.60;41.30;;;;;;1569610;74;998;-73
2024/01/20 06:53:01;;;;;;;;;;;16.50;41.30;;;;;;1563000;74;705;-73
2024/01/20 06:55:03;;;;;;;;;;;16.50;41.30;;;;;;1568343;74;648;-74
2024/01/20 06:57:05;;;;;;;;;;;16.50;41.30;;;;;;1567248;74;677;-72
2024/01/20 06:59:07;;;;;;;;;;;16.50;41.30;;;;;;1568435;74;1121;-70
2024/01/20 07:01:08;;;;;;;;;;;16.50;41.30;;;;;;1576615;74;676;-71
2024/01/20 07:03:10;;;;;;;;;;;16.50;41.30;;;;;;1564346;75;1945;-70
2024/01/20 07:05:12;;;;;;;;;;;16.50;41.30;;;;;;1573364;74;613;-73
2024/01/20 07:07:14;;;;;;;;;;;16.50;41.20;;;;;;1569492;74;729;-73
2024/01/20 07:09:16;;;;;;;;;;;16.50;41.30;;;;;;1565591;74;815;-72
2024/01/20 07:11:18;;;;;;;;;;;16.50;41.30;;;;;;1569303;74;695;-72
2024/01/20 07:13:20;;;;;;;;;;;16.40;41.20;;;;;;1571642;75;592;-71
2024/01/20 07:15:22;;;;;;;;;;;16.50;41.30;;;;;;1571819;74;1610;-73
2024/01/20 07:17:24;;;;;;;;;;;16.40;41.20;;;;;;1567844;74;1161;-72
2024/01/20 07:19:26;;;;;;;;;;;16.50;41.20;;;;;;1565615;74;561;-74
2024/01/20 07:21:28;;;;;;;;;;;16.40;41.20;;;;;;1567956;74;719;-71
2024/01/20 07:23:30;;;;;;;;;;;16.40;41.20;;;;;;1561989;74;1950;-74
2024/01/20 07:25:36;;;;;;;;;;;16.50;41.20;;;;;;1566433;75;694;-69
2024/01/20 07:27:35;;;;;;;;;;;16.50;41.30;;;;;;1569792;74;2072;-68
2024/01/20 07:29:37;;;;;;;;;;;16.50;41.30;;;;;;1570615;74;720;-74
2024/01/20 07:31:39;;;;;;;;;;;16.50;41.30;;;;;;1566748;75;728;-74
2024/01/20 07:33:41;;;;;;;;;;;16.40;41.20;;;;;;1569816;74;705;-71
2024/01/20 07:35:43;;;;;;;;;;;16.50;41.30;;;;;;1549262;74;670;-72
2024/01/20 07:37:45;;;;;;;;;;;16.50;41.30;;;;;;1562758;73;1138;-73
2024/01/20 07:39:47;;;;;;;;;;;16.50;41.30;;;;;;1567372;74;790;-73
2024/01/20 07:41:48;;;;;;;;;;;16.50;41.30;;;;;;1566282;74;793;-73
2024/01/20 07:43:50;;;;;;;;;;;16.50;41.20;;;;;;1577130;74;1924;-72
2024/01/20 07:45:54;;;;;;;;;;;16.50;41.20;;;;;;1565856;74;735;-72
2024/01/20 07:47:56;;;;;;;;;;;16.50;41.10;;;;;;1564806;74;1130;-73
2024/01/20 07:49:58;;;;;;;;;;;16.60;41.20;;;;;;1566333;74;771;-73
2024/01/20 07:51:59;;;;;;;;;;;16.50;41.10;;;;;;1559943;74;675;-73
2024/01/20 07:54:01;;;;;;;;;;;16.50;41.20;;;;;;1569394;74;650;-73
2024/01/20 07:56:03;;;;;;;;;;;16.50;41.00;;;;;;1571979;74;693;-73
2024/01/20 07:58:05;;;;;;;;;;;16.60;41.10;;;;;;1574761;74;1150;-74
2024/01/20 08:00:09;;;;;;;;;;;16.50;41.00;;;;;;1571886;75;700;-69
2024/01/20 08:02:11;;;;;;;;;;;16.50;41.00;;;;;;1569462;75;797;-70
2024/01/20 08:04:12;;;;;;;;;;;16.60;41.00;;;;;;1569781;74;1947;-71
2024/01/20 08:06:14;;;;;;;;;;;16.60;41.00;;;;;;1568715;74;666;-72
2024/01/20 08:08:16;;;;;;;;;;;16.60;41.00;;;;;;1571491;74;1126;-72
2024/01/20 08:10:18;;;;;;;;;;;16.50;41.00;;;;;;1564310;74;719;-70
2024/01/20 08:12:20;;;;;;;;;;;16.60;41.00;;;;;;1565798;74;1618;-74
2024/01/20 08:14:22;;;;;;;;;;;16.60;41.00;;;;;;1572246;74;670;-70
2024/01/20 08:16:25;;;;;;;;;;;16.60;41.00;;;;;;1570618;74;708;-70
2024/01/20 08:18:27;;;;;;;;;;;16.60;41.00;;;;;;1569846;74;1122;-73
2024/01/20 08:20:28;;;;;;;;;;;16.60;41.00;;;;;;1567066;74;707;-72
2024/01/20 08:22:30;;;;;;;;;;;16.60;41.00;;;;;;1565285;75;699;-73
2024/01/20 08:24:32;;;;;;;;;;;16.60;41.00;;;;;;1563491;74;1918;-74
2024/01/20 08:26:34;;;;;;;;;;;16.60;41.00;;;;;;1574936;74;719;-73
2024/01/20 08:28:36;;;;;;;;;;;16.50;41.00;;;;;;1567034;74;1156;-73
2024/01/20 08:30:38;;;;;;;;;;;16.50;41.00;;;;;;1569463;74;732;-73
2024/01/20 08:32:40;;;;;;;;;;;16.50;41.00;;;;;;1566789;74;688;-73
2024/01/20 08:34:42;;;;;;;;;;;16.60;41.00;;;;;;1572162;75;644;-71
2024/01/20 08:36:43;;;;;;;;;;;16.50;41.00;;;;;;1574631;74;898;-72
2024/01/20 08:38:45;;;;;;;;;;;16.60;41.00;;;;;;1568783;74;1129;-73
2024/01/20 08:40:47;;;;;;;;;;;16.50;41.00;;;;;;1573208;74;729;-72
2024/01/20 08:42:49;;;;;;;;;;;16.60;41.00;;;;;;1569676;74;1941;-72
2024/01/20 08:44:51;;;;;;;;;;;16.50;41.00;;;;;;1567398;74;563;-71
2024/01/20 08:46:53;;;;;;;;;;;16.60;40.90;;;;;;1574714;74;565;-72
2024/01/20 08:48:55;;;;;;;;;;;16.50;41.00;;;;;;1556377;74;1080;-71
2024/01/20 08:50:57;;;;;;;;;;;16.50;41.00;;;;;;1566335;74;680;-73
2024/01/20 08:52:59;;;;;;;;;;;16.50;41.00;;;;;;1558859;74;661;-72
2024/01/20 08:55:00;;;;;;;;;;;16.50;40.90;;;;;;1562842;74;649;-72
2024/01/20 08:57:02;;;;;;;;;;;16.60;41.00;;;;;;1566445;74;720;-71
2024/01/20 08:59:04;;;;;;;;;;;16.60;40.90;;;;;;1570161;74;1197;-74
2024/01/20 09:01:07;;;;;;;;;;;16.60;41.00;;;;;;1573388;74;764;-71
2024/01/20 09:03:09;;;;;;;;;;;16.60;41.00;;;;;;1565347;74;1896;-73
2024/01/20 09:05:11;;;;;;;;;;;16.50;40.90;;;;;;1562127;74;722;-73
2024/01/20 09:07:13;;;;;;;;;;;16.60;41.00;;;;;;1569106;74;1551;-72
2024/01/20 09:09:15;;;;;;;;;;;16.60;41.00;;;;;;1564249;75;1142;-65
2024/01/20 09:11:17;;;;;;;;;;;16.60;41.00;;;;;;1572489;74;665;-69
2024/01/20 09:13:19;;;;;;;;;;;16.60;41.00;;;;;;1567065;74;678;-73
2024/01/20 09:15:21;;;;;;;;;;;16.60;40.90;;;;;;1568967;74;719;-73
2024/01/20 09:17:23;;;;;;;;;;;16.60;41.00;;;;;;1569736;74;1154;-71
2024/01/20 09:19:25;;;;;;;;;;;16.50;41.00;;;;;;1574130;74;628;-73
2024/01/20 09:21:27;;;;;;;;;;;16.60;41.00;;;;;;1567262;74;715;-74
2024/01/20 09:23:29;;;;;;;;;;;16.60;41.00;;;;;;1564042;74;1944;-71
2024/01/20 09:25:31;;;;;;;;;;;16.50;41.00;;;;;;1560143;74;738;-74
2024/01/20 09:27:32;;;;;;;;;;;16.60;41.00;;;;;;1571470;74;1174;-73
2024/01/20 09:29:34;;;;;;;;;;;16.50;40.90;;;;;;1567648;74;664;-71
2024/01/20 09:31:37;;;;;;;;;;;16.60;40.90;;;;;;1570350;74;668;-71
2024/01/20 09:33:38;;;;;;;;;;;16.60;41.00;;;;;;1566080;74;607;-73
2024/01/20 09:35:40;;;;;;;;;;;16.60;41.00;;;;;;1573236;74;772;-72
2024/01/20 09:37:42;;;;;;;;;;;16.50;40.90;;;;;;1560489;74;1146;-73
2024/01/20 09:39:44;;;;;;;;;;;16.60;41.00;;;;;;1574938;74;688;-70
2024/01/20 09:41:46;;;;;;;;;;;16.50;41.00;;;;;;1571228;74;563;-73
2024/01/20 09:43:48;;;;;;;;;;;16.60;41.00;;;;;;1561401;74;1926;-72
2024/01/20 09:45:50;;;;;;;;;;;16.50;40.90;;;;;;1567690;74;760;-70
2024/01/20 09:47:52;;;;;;;;;;;16.60;41.00;;;;;;1566161;74;1262;-72
2024/01/20 09:49:54;;;;;;;;;;;16.50;41.00;;;;;;1560379;74;685;-72
2024/01/20 09:51:56;;;;;;;;;;;16.50;41.00;;;;;;1564510;74;675;-72
2024/01/20 09:54:01;;;;;;;;;;;16.50;41.00;;;;;;1561674;74;727;-69
2024/01/20 09:56:03;;;;;;;;;;;16.60;41.00;;;;;;1563504;74;893;-73
2024/01/20 09:58:05;;;;;;;;;;;16.60;40.90;;;;;;1570195;74;1117;-71
2024/01/20 10:00:08;;;;;;;;;;;16.60;41.00;;;;;;1568159;74;650;-74
2024/01/20 10:02:11;;;;;;;;;;;16.50;40.90;;;;;;1568873;75;688;-69
2024/01/20 10:04:13;;;;;;;;;;;16.60;41.00;;;;;;1562758;74;1928;-71
2024/01/20 10:06:15;;;;;;;;;;;16.50;41.00;;;;;;1565574;74;685;-72
2024/01/20 10:08:17;;;;;;;;;;;16.50;40.70;;;;;;1558376;74;1133;-73
2024/01/20 10:10:22;;;;;;;;;;;16.60;40.90;;;;;;1561164;74;768;-74
2024/01/20 10:12:23;;;;;;;;;;;16.50;41.00;;;;;;1561096;74;740;-74
2024/01/20 10:14:25;;;;;;;;;;;16.50;41.00;;;;;;1562684;74;717;-74
2024/01/20 10:16:29;;;;;;;;;;;16.50;41.00;;;;;;1562182;74;697;-74
2024/01/20 10:18:31;;;;;;;;;;;16.60;41.00;;;;;;1569547;74;1231;-74
2024/01/20 10:20:35;;;;;;;;;;;16.60;41.10;;;;;;1567075;74;684;-73
2024/01/20 10:22:36;;;;;;;;;;;16.60;37.80;;;;;;1564071;74;1602;-71
2024/01/20 10:24:47;;;;;;;;;;;16.50;39.40;;;;;;1563961;74;1958;-74
2024/01/20 10:26:52;;;;;;;;;;;16.50;39.90;;;;;;1564598;74;679;-73
2024/01/20 10:28:54;;;;;;;;;;;16.50;40.40;;;;;;1567830;74;1499;-75
2024/01/20 10:30:56;;;;;;;;;;;16.60;40.60;;;;;;1573084;74;641;-74
2024/01/20 10:33:00;;;;;;;;;;;16.50;40.70;;;;;;1565156;74;968;-68
2024/01/20 10:35:02;;;;;;;;;;;16.60;40.70;;;;;;1566707;74;683;-73
2024/01/20 10:37:05;;;;;;;;;;;16.60;40.80;;;;;;1564749;74;683;-74
2024/01/20 10:39:07;;;;;;;;;;;16.60;40.90;;;;;;1560644;74;1082;-69
2024/01/20 10:41:09;;;;;;;;;;;16.60;41.00;;;;;;1571289;74;677;-70
2024/01/20 10:43:15;;;;;;;;;;;16.60;41.00;;;;;;1568128;74;750;-75
2024/01/20 10:45:20;;;;;;;;;;;16.70;41.10;;;;;;1569029;74;1926;-71
2024/01/20 10:47:26;;;;;;;;;;;16.70;41.20;;;;;;1569574;74;1161;-74
2024/01/20 10:49:29;;;;;;;;;;;16.70;41.30;;;;;;1562687;74;1594;-75
2024/01/20 10:51:31;;;;;;;;;;;16.70;41.30;;;;;;1570388;74;821;-73
2024/01/20 10:53:33;;;;;;;;;;;16.70;41.40;;;;;;1563566;74;681;-74
2024/01/20 10:55:35;;;;;;;;;;;16.80;41.50;;;;;;1570305;74;657;-73
2024/01/20 10:57:37;;;;;;;;;;;16.70;41.50;;;;;;1570366;74;1140;-73
2024/01/20 10:59:40;;;;;;;;;;;16.70;41.50;;;;;;1573950;74;1539;-73
2024/01/20 11:01:43;;;;;;;;;;;16.80;41.70;;;;;;1565809;74;768;-73
2024/01/20 11:03:45;;;;;;;;;;;16.70;41.60;;;;;;1569078;74;1938;-72
2024/01/20 11:05:47;;;;;;;;;;;16.70;41.70;;;;;;1569114;74;838;-74
2024/01/20 11:07:56;;;;;;;;;;;16.80;41.60;;;;;;1564983;74;1140;-74
2024/01/20 11:09:58;;;;;;;;;;;16.80;41.70;;;;;;1571246;74;691;-75
2024/01/20 11:12:06;;;;;;;;;;;16.70;41.70;;;;;;1560916;74;751;-73
2024/01/20 11:14:08;;;;;;;;;;;16.80;41.70;;;;;;1564030;74;794;-72
2024/01/20 11:16:11;;;;;;;;;;;16.80;39.40;;;;;;1525926;75;1399;-74
2024/01/20 11:18:17;;;;;;;;;;;16.70;40.00;;;;;;1561699;74;1176;-72
2024/01/20 11:20:19;;;;;;;;;;;16.70;40.70;;;;;;1563460;74;1142;-72
2024/01/20 11:22:30;;;;;;;;;;;16.70;40.90;;;;;;1565287;74;1258;-74
2024/01/20 11:24:38;;;;;;;;;;;16.70;41.20;;;;;;1567295;74;1908;-74
2024/01/20 11:26:40;;;;;;;;;;;16.70;41.40;;;;;;1569197;74;1267;-74
2024/01/20 11:28:45;;;;;;;;;;;16.70;41.50;;;;;;1556767;74;1163;-71
2024/01/20 11:30:47;;;;;;;;;;;16.80;41.50;;;;;;1564185;74;1580;-74
2024/01/20 11:32:49;;;;;;;;;;;16.70;41.50;;;;;;1562649;74;1135;-73
2024/01/20 11:34:52;;;;;;;;;;;16.80;41.50;;;;;;1564123;74;1093;-72
2024/01/20 11:36:54;;;;;;;;;;;16.80;41.50;;;;;;1555480;74;1031;-75
2024/01/20 11:38:57;;;;;;;;;;;16.80;41.50;;;;;;1530141;76;1224;-75
2024/01/20 11:41:00;;;;;;;;;;;16.80;41.50;;;;;;1566384;74;1061;-74
2024/01/20 11:43:05;;;;;;;;;;;16.80;41.70;;;;;;1566385;74;1108;-71
2024/01/20 11:45:07;;;;;;;;;;;16.80;41.60;;;;;;1566661;74;1929;-72
2024/01/20 11:47:09;;;;;;;;;;;16.90;41.80;;;;;;1565013;74;1104;-72
2024/01/20 11:49:11;;;;;;;;;;;16.80;41.60;;;;;;1570609;74;1190;-72
2024/01/20 11:51:13;;;;;;;;;;;16.80;41.60;;;;;;1569004;74;1040;-74
2024/01/20 11:53:15;;;;;;;;;;;16.80;41.70;;;;;;1567069;74;1095;-75
2024/01/20 11:55:17;;;;;;;;;;;16.90;41.80;;;;;;1558903;74;1077;-73
2024/01/20 11:57:20;;;;;;;;;;;16.90;41.80;;;;;;1561039;74;1147;-73
2024/01/20 11:59:22;;;;;;;;;;;16.90;41.80;;;;;;1560140;74;1438;-73
2024/01/20 12:01:24;;;;;;;;;;;16.90;41.80;;;;;;1564075;74;1100;-73
2024/01/20 12:03:27;;;;;;;;;;;16.90;41.80;;;;;;1561980;74;1148;-74
2024/01/20 12:05:28;;;;;;;;;;;16.90;41.80;;;;;;1564273;74;1919;-72
2024/01/20 12:07:30;;;;;;;;;;;16.90;41.80;;;;;;1559172;74;1129;-74